Ana Sayfa
METAR-TAF:

METAR-TAF

Havaalanları :

Huron County Memorial Airport

Bad Axe, Michigan, Amerika Birleşik Devletleri

Enlem: 43-46-51N, Boylam: 082-59-08W, yükseklik: 233 m

Güncel hava durumu gözlemi

Rapor saat 07:56 UTC de 25 dakika önce yapıldı.
Rüzgar batıdan 13 kt ve 18 kt'a kadar ani rüzgarlar
Sıcaklık 5°C
Nem 93%
Basınç 1006 hPa
Görüş mesafesi: 16.1 km
1200 ft yükseklikte çok bulutlu
hafif yağmur

METAR: KBAX 300756Z AUTO 26013G18KT 10SM -RA OVC012 05/04 A2971 RMK AO2 T00460036

Saat: 04:21 (08:21 UTC)


TAF: eksik

4.000'den fazla havaalanı için hava durumu gözlemleri ve tahminleri (METAR ve TAF raporları).

Kullanılabilir istasyonlar harita üzerinde sarı ve kırmızı noktalarla gösterilir.

İstasyonun adını görmek için fareyi noktanın üzerinde gezdirin.

Sonrasında hava gözlem ve tahminlerini görmek için tıklayın.

Haritayı değiştirmek için: yaklaştırmak için siyah artı işaretli yeşil düğmeye ve uzaklaştırmak için de eksi işaretli düğmeye hızla tıklayın; bitişik haritalar için yeşil okları kullanın.


METAR-TAF: